sensor_id;sensor_type;location;lat;lon;timestamp;P1;durP1;ratioP1;P2;durP2;ratioP2
9783;SDS011;4931;44.874;-1.092;2023-09-18T00:00:44;16.45;;;9.45;;
9783;SDS011;4931;44.874;-1.092;2023-09-18T00:03:16;22.55;;;8.57;;
9783;SDS011;4931;44.874;-1.092;2023-09-18T00:05:44;18.70;;;8.70;;
9783;SDS011;4931;44.874;-1.092;2023-09-18T00:08:11;22.20;;;9.32;;
9783;SDS011;4931;44.874;-1.092;2023-09-18T00:10:37;19.00;;;8.95;;
9783;SDS011;4931;44.874;-1.092;2023-09-18T00:13:02;14.15;;;8.20;;
9783;SDS011;4931;44.874;-1.092;2023-09-18T00:15:28;22.08;;;8.70;;
9783;SDS011;4931;44.874;-1.092;2023-09-18T00:17:53;22.30;;;9.30;;
9783;SDS011;4931;44.874;-1.092;2023-09-18T00:20:19;18.58;;;8.65;;
9783;SDS011;4931;44.874;-1.092;2023-09-18T00:22:45;16.05;;;8.48;;
9783;SDS011;4931;44.874;-1.092;2023-09-18T00:25:11;15.52;;;7.78;;
9783;SDS011;4931;44.874;-1.092;2023-09-18T00:27:36;14.15;;;7.82;;
9783;SDS011;4931;44.874;-1.092;2023-09-18T00:30:03;15.38;;;7.13;;
9783;SDS011;4931;44.874;-1.092;2023-09-18T00:32:29;13.80;;;8.20;;
9783;SDS011;4931;44.874;-1.092;2023-09-18T00:34:55;17.58;;;8.23;;
9783;SDS011;4931;44.874;-1.092;2023-09-18T00:37:21;16.63;;;7.85;;
9783;SDS011;4931;44.874;-1.092;2023-09-18T00:39:46;13.93;;;7.82;;
9783;SDS011;4931;44.874;-1.092;2023-09-18T00:42:11;18.35;;;8.20;;
9783;SDS011;4931;44.874;-1.092;2023-09-18T00:44:43;17.17;;;8.23;;
9783;SDS011;4931;44.874;-1.092;2023-09-18T00:47:08;13.60;;;7.80;;
9783;SDS011;4931;44.874;-1.092;2023-09-18T00:49:35;16.00;;;7.97;;
9783;SDS011;4931;44.874;-1.092;2023-09-18T00:52:04;17.95;;;8.68;;
9783;SDS011;4931;44.874;-1.092;2023-09-18T00:54:30;15.07;;;7.72;;
9783;SDS011;4931;44.874;-1.092;2023-09-18T00:56:56;13.90;;;7.93;;
9783;SDS011;4931;44.874;-1.092;2023-09-18T00:59:22;14.93;;;7.68;;
9783;SDS011;4931;44.874;-1.092;2023-09-18T01:01:48;13.23;;;7.95;;
9783;SDS011;4931;44.874;-1.092;2023-09-18T01:04:18;16.17;;;8.30;;
9783;SDS011;4931;44.874;-1.092;2023-09-18T01:06:44;14.15;;;7.65;;
9783;SDS011;4931;44.874;-1.092;2023-09-18T01:09:10;15.93;;;7.90;;
9783;SDS011;4931;44.874;-1.092;2023-09-18T01:17:16;14.27;;;8.25;;
9783;SDS011;4931;44.874;-1.092;2023-09-18T01:22:10;13.13;;;7.55;;
9783;SDS011;4931;44.874;-1.092;2023-09-18T01:24:37;16.38;;;7.88;;
9783;SDS011;4931;44.874;-1.092;2023-09-18T01:27:05;16.77;;;7.30;;
9783;SDS011;4931;44.874;-1.092;2023-09-18T01:29:33;14.00;;;7.28;;
9783;SDS011;4931;44.874;-1.092;2023-09-18T01:31:59;11.38;;;7.03;;
9783;SDS011;4931;44.874;-1.092;2023-09-18T01:34:37;16.67;;;7.20;;
9783;SDS011;4931;44.874;-1.092;2023-09-18T01:37:07;15.18;;;7.43;;
9783;SDS011;4931;44.874;-1.092;2023-09-18T01:39:35;13.27;;;7.65;;
9783;SDS011;4931;44.874;-1.092;2023-09-18T01:42:01;14.95;;;7.28;;
9783;SDS011;4931;44.874;-1.092;2023-09-18T01:44:29;15.55;;;7.65;;
9783;SDS011;4931;44.874;-1.092;2023-09-18T01:46:56;15.60;;;7.28;;
9783;SDS011;4931;44.874;-1.092;2023-09-18T01:49:31;13.05;;;7.43;;
9783;SDS011;4931;44.874;-1.092;2023-09-18T01:51:58;14.73;;;7.90;;
9783;SDS011;4931;44.874;-1.092;2023-09-18T01:54:24;15.00;;;7.53;;
9783;SDS011;4931;44.874;-1.092;2023-09-18T01:56:50;14.80;;;8.15;;
9783;SDS011;4931;44.874;-1.092;2023-09-18T01:59:16;13.75;;;8.13;;
9783;SDS011;4931;44.874;-1.092;2023-09-18T02:01:43;14.50;;;7.55;;
9783;SDS011;4931;44.874;-1.092;2023-09-18T02:04:08;15.63;;;7.38;;
9783;SDS011;4931;44.874;-1.092;2023-09-18T02:06:35;13.95;;;7.25;;
9783;SDS011;4931;44.874;-1.092;2023-09-18T02:09:00;18.20;;;7.40;;
9783;SDS011;4931;44.874;-1.092;2023-09-18T02:11:26;17.17;;;8.15;;
9783;SDS011;4931;44.874;-1.092;2023-09-18T02:13:52;14.82;;;7.70;;
9783;SDS011;4931;44.874;-1.092;2023-09-18T02:16:17;13.25;;;7.80;;
9783;SDS011;4931;44.874;-1.092;2023-09-18T02:18:47;16.60;;;7.45;;
9783;SDS011;4931;44.874;-1.092;2023-09-18T02:21:19;17.42;;;7.72;;
9783;SDS011;4931;44.874;-1.092;2023-09-18T02:23:45;14.93;;;7.45;;
9783;SDS011;4931;44.874;-1.092;2023-09-18T02:26:10;18.02;;;7.50;;
9783;SDS011;4931;44.874;-1.092;2023-09-18T02:28:36;12.27;;;7.03;;
9783;SDS011;4931;44.874;-1.092;2023-09-18T02:31:02;14.35;;;7.30;;
9783;SDS011;4931;44.874;-1.092;2023-09-18T02:33:27;17.45;;;7.35;;
9783;SDS011;4931;44.874;-1.092;2023-09-18T02:35:53;16.35;;;6.93;;
9783;SDS011;4931;44.874;-1.092;2023-09-18T02:38:18;16.10;;;7.18;;
9783;SDS011;4931;44.874;-1.092;2023-09-18T02:40:44;15.20;;;7.38;;
9783;SDS011;4931;44.874;-1.092;2023-09-18T02:43:09;14.32;;;6.75;;
9783;SDS011;4931;44.874;-1.092;2023-09-18T02:45:35;14.95;;;7.20;;
9783;SDS011;4931;44.874;-1.092;2023-09-18T02:48:00;13.63;;;7.25;;
9783;SDS011;4931;44.874;-1.092;2023-09-18T02:50:26;12.52;;;6.95;;
9783;SDS011;4931;44.874;-1.092;2023-09-18T02:52:51;17.10;;;6.82;;
9783;SDS011;4931;44.874;-1.092;2023-09-18T02:55:17;12.98;;;6.65;;
9783;SDS011;4931;44.874;-1.092;2023-09-18T02:57:43;15.45;;;7.28;;
9783;SDS011;4931;44.874;-1.092;2023-09-18T03:00:08;15.68;;;6.82;;
9783;SDS011;4931;44.874;-1.092;2023-09-18T03:02:34;11.75;;;6.18;;
9783;SDS011;4931;44.874;-1.092;2023-09-18T03:05:00;15.35;;;6.15;;
9783;SDS011;4931;44.874;-1.092;2023-09-18T03:07:26;19.05;;;6.97;;
9783;SDS011;4931;44.874;-1.092;2023-09-18T03:09:54;14.15;;;6.18;;
9783;SDS011;4931;44.874;-1.092;2023-09-18T03:12:20;13.30;;;5.70;;
9783;SDS011;4931;44.874;-1.092;2023-09-18T03:14:47;10.63;;;6.43;;
9783;SDS011;4931;44.874;-1.092;2023-09-18T03:17:13;10.93;;;5.65;;
9783;SDS011;4931;44.874;-1.092;2023-09-18T03:19:38;10.75;;;6.03;;
9783;SDS011;4931;44.874;-1.092;2023-09-18T03:22:04;13.05;;;5.57;;
9783;SDS011;4931;44.874;-1.092;2023-09-18T03:24:29;15.18;;;6.78;;
9783;SDS011;4931;44.874;-1.092;2023-09-18T03:26:55;12.88;;;5.72;;
9783;SDS011;4931;44.874;-1.092;2023-09-18T03:29:20;12.18;;;5.90;;
9783;SDS011;4931;44.874;-1.092;2023-09-18T03:31:46;11.40;;;5.63;;
9783;SDS011;4931;44.874;-1.092;2023-09-18T03:34:11;21.55;;;6.25;;
9783;SDS011;4931;44.874;-1.092;2023-09-18T03:36:38;11.55;;;6.03;;
9783;SDS011;4931;44.874;-1.092;2023-09-18T03:39:04;13.48;;;5.85;;
9783;SDS011;4931;44.874;-1.092;2023-09-18T03:41:30;13.20;;;6.00;;
9783;SDS011;4931;44.874;-1.092;2023-09-18T03:44:02;11.85;;;5.03;;
9783;SDS011;4931;44.874;-1.092;2023-09-18T03:46:27;12.70;;;5.35;;
9783;SDS011;4931;44.874;-1.092;2023-09-18T03:48:53;9.65;;;5.03;;
9783;SDS011;4931;44.874;-1.092;2023-09-18T03:51:20;15.85;;;5.65;;
9783;SDS011;4931;44.874;-1.092;2023-09-18T03:53:45;13.27;;;5.25;;
9783;SDS011;4931;44.874;-1.092;2023-09-18T03:56:11;12.02;;;5.20;;
9783;SDS011;4931;44.874;-1.092;2023-09-18T03:58:37;9.82;;;5.22;;
9783;SDS011;4931;44.874;-1.092;2023-09-18T04:01:02;9.45;;;4.72;;
9783;SDS011;4931;44.874;-1.092;2023-09-18T04:03:28;10.32;;;4.28;;
9783;SDS011;4931;44.874;-1.092;2023-09-18T04:05:53;13.93;;;4.68;;
9783;SDS011;4931;44.874;-1.092;2023-09-18T04:08:19;13.02;;;5.60;;
9783;SDS011;4931;44.874;-1.092;2023-09-18T04:10:45;16.20;;;5.05;;
9783;SDS011;4931;44.874;-1.092;2023-09-18T04:13:10;11.65;;;4.65;;
9783;SDS011;4931;44.874;-1.092;2023-09-18T04:15:37;13.52;;;5.15;;
9783;SDS011;4931;44.874;-1.092;2023-09-18T04:18:05;10.15;;;4.50;;
9783;SDS011;4931;44.874;-1.092;2023-09-18T04:20:31;12.65;;;4.63;;
9783;SDS011;4931;44.874;-1.092;2023-09-18T04:28:15;13.32;;;4.35;;
9783;SDS011;4931;44.874;-1.092;2023-09-18T04:30:42;7.00;;;4.53;;
9783;SDS011;4931;44.874;-1.092;2023-09-18T04:33:07;8.32;;;4.05;;
9783;SDS011;4931;44.874;-1.092;2023-09-18T04:35:33;9.30;;;4.88;;
9783;SDS011;4931;44.874;-1.092;2023-09-18T04:37:59;10.57;;;3.92;;
9783;SDS011;4931;44.874;-1.092;2023-09-18T04:40:25;11.48;;;4.05;;
9783;SDS011;4931;44.874;-1.092;2023-09-18T04:42:51;8.48;;;3.85;;
9783;SDS011;4931;44.874;-1.092;2023-09-18T04:45:17;14.55;;;4.40;;
9783;SDS011;4931;44.874;-1.092;2023-09-18T04:47:43;9.88;;;4.78;;
9783;SDS011;4931;44.874;-1.092;2023-09-18T04:50:08;9.93;;;4.22;;
9783;SDS011;4931;44.874;-1.092;2023-09-18T04:52:38;7.25;;;4.07;;
9783;SDS011;4931;44.874;-1.092;2023-09-18T04:55:04;10.93;;;4.38;;
9783;SDS011;4931;44.874;-1.092;2023-09-18T04:57:31;10.43;;;4.18;;
9783;SDS011;4931;44.874;-1.092;2023-09-18T04:59:56;6.38;;;4.00;;
9783;SDS011;4931;44.874;-1.092;2023-09-18T05:02:22;13.15;;;4.22;;
9783;SDS011;4931;44.874;-1.092;2023-09-18T05:04:50;12.88;;;3.83;;
9783;SDS011;4931;44.874;-1.092;2023-09-18T05:07:16;12.95;;;4.25;;
9783;SDS011;4931;44.874;-1.092;2023-09-18T05:09:41;10.23;;;3.95;;
9783;SDS011;4931;44.874;-1.092;2023-09-18T05:12:08;10.05;;;4.32;;
9783;SDS011;4931;44.874;-1.092;2023-09-18T05:14:41;11.60;;;4.15;;
9783;SDS011;4931;44.874;-1.092;2023-09-18T05:17:13;9.50;;;4.00;;
9783;SDS011;4931;44.874;-1.092;2023-09-18T05:19:40;8.43;;;3.67;;
9783;SDS011;4931;44.874;-1.092;2023-09-18T05:22:06;8.10;;;4.47;;
9783;SDS011;4931;44.874;-1.092;2023-09-18T05:24:33;11.43;;;3.80;;
9783;SDS011;4931;44.874;-1.092;2023-09-18T05:26:58;6.78;;;3.97;;
9783;SDS011;4931;44.874;-1.092;2023-09-18T05:29:24;7.47;;;3.92;;
9783;SDS011;4931;44.874;-1.092;2023-09-18T05:31:49;8.75;;;3.40;;
9783;SDS011;4931;44.874;-1.092;2023-09-18T05:34:15;7.38;;;3.90;;
9783;SDS011;4931;44.874;-1.092;2023-09-18T05:36:40;8.32;;;3.50;;
9783;SDS011;4931;44.874;-1.092;2023-09-18T05:39:06;8.43;;;3.80;;
9783;SDS011;4931;44.874;-1.092;2023-09-18T05:41:37;10.18;;;3.97;;
9783;SDS011;4931;44.874;-1.092;2023-09-18T05:44:06;7.82;;;3.78;;
9783;SDS011;4931;44.874;-1.092;2023-09-18T05:46:35;8.10;;;3.83;;
9783;SDS011;4931;44.874;-1.092;2023-09-18T05:49:02;7.95;;;3.90;;
9783;SDS011;4931;44.874;-1.092;2023-09-18T05:51:28;9.52;;;4.00;;
9783;SDS011;4931;44.874;-1.092;2023-09-18T05:53:54;9.98;;;4.18;;
9783;SDS011;4931;44.874;-1.092;2023-09-18T05:56:20;11.65;;;4.03;;
9783;SDS011;4931;44.874;-1.092;2023-09-18T05:58:46;9.73;;;3.50;;
9783;SDS011;4931;44.874;-1.092;2023-09-18T06:01:11;7.97;;;3.92;;
9783;SDS011;4931;44.874;-1.092;2023-09-18T06:03:37;11.15;;;3.83;;
9783;SDS011;4931;44.874;-1.092;2023-09-18T06:06:02;10.35;;;3.80;;
9783;SDS011;4931;44.874;-1.092;2023-09-18T06:08:29;7.63;;;3.70;;
9783;SDS011;4931;44.874;-1.092;2023-09-18T06:10:56;13.07;;;3.85;;
9783;SDS011;4931;44.874;-1.092;2023-09-18T06:13:23;11.82;;;3.53;;
9783;SDS011;4931;44.874;-1.092;2023-09-18T06:15:50;10.02;;;3.38;;
9783;SDS011;4931;44.874;-1.092;2023-09-18T06:18:17;11.10;;;3.53;;
9783;SDS011;4931;44.874;-1.092;2023-09-18T06:20:45;9.90;;;3.92;;
9783;SDS011;4931;44.874;-1.092;2023-09-18T06:23:11;14.70;;;4.00;;
9783;SDS011;4931;44.874;-1.092;2023-09-18T06:25:38;12.73;;;3.83;;
9783;SDS011;4931;44.874;-1.092;2023-09-18T06:28:04;11.75;;;3.83;;
9783;SDS011;4931;44.874;-1.092;2023-09-18T06:30:30;10.88;;;3.58;;
9783;SDS011;4931;44.874;-1.092;2023-09-18T06:33:02;14.52;;;4.13;;
9783;SDS011;4931;44.874;-1.092;2023-09-18T06:35:29;14.60;;;4.10;;
9783;SDS011;4931;44.874;-1.092;2023-09-18T06:37:55;10.60;;;3.95;;
9783;SDS011;4931;44.874;-1.092;2023-09-18T06:40:23;10.77;;;3.63;;
9783;SDS011;4931;44.874;-1.092;2023-09-18T06:42:50;12.13;;;3.88;;
9783;SDS011;4931;44.874;-1.092;2023-09-18T06:45:16;9.43;;;3.70;;
9783;SDS011;4931;44.874;-1.092;2023-09-18T06:47:42;10.88;;;3.55;;
9783;SDS011;4931;44.874;-1.092;2023-09-18T06:50:07;9.43;;;3.63;;
9783;SDS011;4931;44.874;-1.092;2023-09-18T06:52:34;11.85;;;3.58;;
9783;SDS011;4931;44.874;-1.092;2023-09-18T06:54:59;10.07;;;3.63;;
9783;SDS011;4931;44.874;-1.092;2023-09-18T06:57:25;11.15;;;3.50;;
9783;SDS011;4931;44.874;-1.092;2023-09-18T06:59:50;11.90;;;3.55;;
9783;SDS011;4931;44.874;-1.092;2023-09-18T07:02:16;11.20;;;3.67;;
9783;SDS011;4931;44.874;-1.092;2023-09-18T07:04:42;9.27;;;3.40;;
9783;SDS011;4931;44.874;-1.092;2023-09-18T07:07:13;10.88;;;3.55;;
9783;SDS011;4931;44.874;-1.092;2023-09-18T07:09:42;12.45;;;3.28;;
9783;SDS011;4931;44.874;-1.092;2023-09-18T07:12:08;9.40;;;2.88;;
9783;SDS011;4931;44.874;-1.092;2023-09-18T07:14:35;14.00;;;3.70;;
9783;SDS011;4931;44.874;-1.092;2023-09-18T07:17:00;10.80;;;2.92;;
9783;SDS011;4931;44.874;-1.092;2023-09-18T07:19:27;12.63;;;2.60;;
9783;SDS011;4931;44.874;-1.092;2023-09-18T07:21:53;12.95;;;2.20;;
9783;SDS011;4931;44.874;-1.092;2023-09-18T07:24:18;10.30;;;1.63;;
9783;SDS011;4931;44.874;-1.092;2023-09-18T07:26:46;9.32;;;1.60;;
9783;SDS011;4931;44.874;-1.092;2023-09-18T07:29:15;10.73;;;1.85;;
9783;SDS011;4931;44.874;-1.092;2023-09-18T07:31:41;15.50;;;1.95;;
9783;SDS011;4931;44.874;-1.092;2023-09-18T07:34:08;11.05;;;2.20;;
9783;SDS011;4931;44.874;-1.092;2023-09-18T07:36:33;15.82;;;2.50;;
9783;SDS011;4931;44.874;-1.092;2023-09-18T07:38:59;10.57;;;1.98;;
9783;SDS011;4931;44.874;-1.092;2023-09-18T07:41:24;16.05;;;2.42;;
9783;SDS011;4931;44.874;-1.092;2023-09-18T07:43:50;12.57;;;2.28;;
9783;SDS011;4931;44.874;-1.092;2023-09-18T07:46:16;12.75;;;1.80;;
9783;SDS011;4931;44.874;-1.092;2023-09-18T07:48:41;13.35;;;2.25;;
9783;SDS011;4931;44.874;-1.092;2023-09-18T07:51:10;13.75;;;2.50;;
9783;SDS011;4931;44.874;-1.092;2023-09-18T07:53:36;9.38;;;2.08;;
9783;SDS011;4931;44.874;-1.092;2023-09-18T07:56:02;11.70;;;2.20;;
9783;SDS011;4931;44.874;-1.092;2023-09-18T07:58:30;12.02;;;2.00;;
9783;SDS011;4931;44.874;-1.092;2023-09-18T08:00:56;13.90;;;2.20;;
9783;SDS011;4931;44.874;-1.092;2023-09-18T08:03:25;10.75;;;2.10;;
9783;SDS011;4931;44.874;-1.092;2023-09-18T08:05:51;8.73;;;2.03;;
9783;SDS011;4931;44.874;-1.092;2023-09-18T08:08:18;14.85;;;2.03;;
9783;SDS011;4931;44.874;-1.092;2023-09-18T08:10:49;9.95;;;1.67;;
9783;SDS011;4931;44.874;-1.092;2023-09-18T08:13:15;9.70;;;1.88;;
9783;SDS011;4931;44.874;-1.092;2023-09-18T08:15:41;10.80;;;1.95;;
9783;SDS011;4931;44.874;-1.092;2023-09-18T08:18:06;14.43;;;2.28;;
9783;SDS011;4931;44.874;-1.092;2023-09-18T08:20:32;9.15;;;1.65;;
9783;SDS011;4931;44.874;-1.092;2023-09-18T08:22:58;10.20;;;2.08;;
9783;SDS011;4931;44.874;-1.092;2023-09-18T08:25:26;8.43;;;1.70;;
9783;SDS011;4931;44.874;-1.092;2023-09-18T08:27:52;12.93;;;2.20;;
9783;SDS011;4931;44.874;-1.092;2023-09-18T08:30:18;8.35;;;1.73;;
9783;SDS011;4931;44.874;-1.092;2023-09-18T08:32:46;13.25;;;2.10;;
9783;SDS011;4931;44.874;-1.092;2023-09-18T08:35:12;11.38;;;1.77;;
9783;SDS011;4931;44.874;-1.092;2023-09-18T08:37:39;9.52;;;2.03;;
9783;SDS011;4931;44.874;-1.092;2023-09-18T08:40:09;7.60;;;1.67;;
9783;SDS011;4931;44.874;-1.092;2023-09-18T08:42:41;7.32;;;1.90;;
9783;SDS011;4931;44.874;-1.092;2023-09-18T08:45:10;8.02;;;1.55;;
9783;SDS011;4931;44.874;-1.092;2023-09-18T08:47:44;8.27;;;1.58;;
9783;SDS011;4931;44.874;-1.092;2023-09-18T08:50:10;10.60;;;2.00;;
9783;SDS011;4931;44.874;-1.092;2023-09-18T08:52:37;10.20;;;1.95;;
9783;SDS011;4931;44.874;-1.092;2023-09-18T08:55:05;10.18;;;2.03;;
9783;SDS011;4931;44.874;-1.092;2023-09-18T08:57:31;9.27;;;1.95;;
9783;SDS011;4931;44.874;-1.092;2023-09-18T08:59:58;8.27;;;1.90;;
9783;SDS011;4931;44.874;-1.092;2023-09-18T09:02:26;9.27;;;1.92;;
9783;SDS011;4931;44.874;-1.092;2023-09-18T09:04:51;9.68;;;1.80;;
9783;SDS011;4931;44.874;-1.092;2023-09-18T09:07:17;9.80;;;1.95;;
9783;SDS011;4931;44.874;-1.092;2023-09-18T09:09:43;10.32;;;1.60;;
9783;SDS011;4931;44.874;-1.092;2023-09-18T09:12:08;8.23;;;1.60;;
9783;SDS011;4931;44.874;-1.092;2023-09-18T09:14:34;13.30;;;1.98;;
9783;SDS011;4931;44.874;-1.092;2023-09-18T09:16:59;8.32;;;1.52;;
9783;SDS011;4931;44.874;-1.092;2023-09-18T09:19:29;7.25;;;1.50;;
9783;SDS011;4931;44.874;-1.092;2023-09-18T09:21:56;11.70;;;1.80;;
9783;SDS011;4931;44.874;-1.092;2023-09-18T09:24:42;9.73;;;1.75;;
9783;SDS011;4931;44.874;-1.092;2023-09-18T09:27:12;8.05;;;1.75;;
9783;SDS011;4931;44.874;-1.092;2023-09-18T09:29:39;9.25;;;2.08;;
9783;SDS011;4931;44.874;-1.092;2023-09-18T09:32:12;7.15;;;1.90;;
9783;SDS011;4931;44.874;-1.092;2023-09-18T09:34:40;11.52;;;1.80;;
9783;SDS011;4931;44.874;-1.092;2023-09-18T09:37:06;11.18;;;1.90;;
9783;SDS011;4931;44.874;-1.092;2023-09-18T09:39:32;8.07;;;1.80;;
9783;SDS011;4931;44.874;-1.092;2023-09-18T09:42:02;17.63;;;2.40;;
9783;SDS011;4931;44.874;-1.092;2023-09-18T09:44:31;8.93;;;1.80;;
9783;SDS011;4931;44.874;-1.092;2023-09-18T09:46:57;12.73;;;1.92;;
9783;SDS011;4931;44.874;-1.092;2023-09-18T09:49:24;15.90;;;2.30;;
9783;SDS011;4931;44.874;-1.092;2023-09-18T09:51:53;16.45;;;2.25;;
9783;SDS011;4931;44.874;-1.092;2023-09-18T09:54:31;9.13;;;1.90;;
9783;SDS011;4931;44.874;-1.092;2023-09-18T09:57:02;12.20;;;2.15;;
9783;SDS011;4931;44.874;-1.092;2023-09-18T09:59:28;7.70;;;1.80;;
9783;SDS011;4931;44.874;-1.092;2023-09-18T10:01:54;9.07;;;1.63;;
9783;SDS011;4931;44.874;-1.092;2023-09-18T10:04:23;14.05;;;2.17;;
9783;SDS011;4931;44.874;-1.092;2023-09-18T10:06:58;10.68;;;2.15;;
9783;SDS011;4931;44.874;-1.092;2023-09-18T10:09:31;13.43;;;2.40;;
9783;SDS011;4931;44.874;-1.092;2023-09-18T10:12:00;11.90;;;2.78;;
9783;SDS011;4931;44.874;-1.092;2023-09-18T10:14:30;13.52;;;2.22;;
9783;SDS011;4931;44.874;-1.092;2023-09-18T10:16:59;14.85;;;2.40;;
9783;SDS011;4931;44.874;-1.092;2023-09-18T10:19:42;18.23;;;3.00;;
9783;SDS011;4931;44.874;-1.092;2023-09-18T10:22:33;12.48;;;2.25;;
9783;SDS011;4931;44.874;-1.092;2023-09-18T10:25:11;15.95;;;2.00;;
9783;SDS011;4931;44.874;-1.092;2023-09-18T10:27:45;6.82;;;1.65;;
9783;SDS011;4931;44.874;-1.092;2023-09-18T10:30:14;15.65;;;1.92;;
9783;SDS011;4931;44.874;-1.092;2023-09-18T10:32:43;22.30;;;4.20;;
9783;SDS011;4931;44.874;-1.092;2023-09-18T10:35:11;22.40;;;3.20;;
9783;SDS011;4931;44.874;-1.092;2023-09-18T10:37:44;16.95;;;2.55;;
9783;SDS011;4931;44.874;-1.092;2023-09-18T10:40:11;17.70;;;2.58;;
9783;SDS011;4931;44.874;-1.092;2023-09-18T10:42:38;17.85;;;2.20;;
9783;SDS011;4931;44.874;-1.092;2023-09-18T10:45:05;15.18;;;2.75;;
9783;SDS011;4931;44.874;-1.092;2023-09-18T10:47:35;21.00;;;2.85;;
9783;SDS011;4931;44.874;-1.092;2023-09-18T10:50:06;10.30;;;2.03;;
9783;SDS011;4931;44.874;-1.092;2023-09-18T10:52:34;11.30;;;1.80;;
9783;SDS011;4931;44.874;-1.092;2023-09-18T10:55:01;13.38;;;2.28;;
9783;SDS011;4931;44.874;-1.092;2023-09-18T10:57:33;13.43;;;2.25;;
9783;SDS011;4931;44.874;-1.092;2023-09-18T11:00:01;17.00;;;2.60;;
9783;SDS011;4931;44.874;-1.092;2023-09-18T11:02:38;14.60;;;2.30;;
9783;SDS011;4931;44.874;-1.092;2023-09-18T11:05:07;12.80;;;2.35;;
9783;SDS011;4931;44.874;-1.092;2023-09-18T11:07:33;20.40;;;2.78;;
9783;SDS011;4931;44.874;-1.092;2023-09-18T11:09:58;14.55;;;2.10;;
9783;SDS011;4931;44.874;-1.092;2023-09-18T11:12:41;14.48;;;2.42;;
9783;SDS011;4931;44.874;-1.092;2023-09-18T11:15:25;17.25;;;2.10;;
9783;SDS011;4931;44.874;-1.092;2023-09-18T11:17:59;15.35;;;2.58;;
9783;SDS011;4931;44.874;-1.092;2023-09-18T11:20:28;12.82;;;1.92;;
9783;SDS011;4931;44.874;-1.092;2023-09-18T11:25:54;12.20;;;2.70;;
9783;SDS011;4931;44.874;-1.092;2023-09-18T11:28:24;14.95;;;1.90;;
9783;SDS011;4931;44.874;-1.092;2023-09-18T11:33:37;12.50;;;1.75;;
9783;SDS011;4931;44.874;-1.092;2023-09-18T11:36:14;6.75;;;1.38;;
9783;SDS011;4931;44.874;-1.092;2023-09-18T11:38:59;10.98;;;1.60;;
9783;SDS011;4931;44.874;-1.092;2023-09-18T11:41:35;11.60;;;1.60;;
9783;SDS011;4931;44.874;-1.092;2023-09-18T11:46:35;13.48;;;1.83;;
9783;SDS011;4931;44.874;-1.092;2023-09-18T11:49:05;14.23;;;1.90;;
9783;SDS011;4931;44.874;-1.092;2023-09-18T11:51:35;12.32;;;1.90;;
9783;SDS011;4931;44.874;-1.092;2023-09-18T11:54:02;16.58;;;2.15;;
9783;SDS011;4931;44.874;-1.092;2023-09-18T11:56:29;10.20;;;1.73;;
9783;SDS011;4931;44.874;-1.092;2023-09-18T11:58:55;12.05;;;1.75;;
9783;SDS011;4931;44.874;-1.092;2023-09-18T12:01:21;9.85;;;1.60;;
9783;SDS011;4931;44.874;-1.092;2023-09-18T12:03:54;10.10;;;1.50;;
9783;SDS011;4931;44.874;-1.092;2023-09-18T12:06:25;9.23;;;1.40;;
9783;SDS011;4931;44.874;-1.092;2023-09-18T12:08:53;7.90;;;1.50;;
9783;SDS011;4931;44.874;-1.092;2023-09-18T12:11:19;12.45;;;1.70;;
9783;SDS011;4931;44.874;-1.092;2023-09-18T12:13:52;11.38;;;1.60;;
9783;SDS011;4931;44.874;-1.092;2023-09-18T12:16:18;11.77;;;1.35;;
9783;SDS011;4931;44.874;-1.092;2023-09-18T12:18:47;8.02;;;1.25;;
9783;SDS011;4931;44.874;-1.092;2023-09-18T12:21:14;6.17;;;1.30;;
9783;SDS011;4931;44.874;-1.092;2023-09-18T12:23:40;12.18;;;1.75;;
9783;SDS011;4931;44.874;-1.092;2023-09-18T12:26:10;12.15;;;1.50;;
9783;SDS011;4931;44.874;-1.092;2023-09-18T12:28:38;6.53;;;1.20;;
9783;SDS011;4931;44.874;-1.092;2023-09-18T12:31:06;9.40;;;1.30;;
9783;SDS011;4931;44.874;-1.092;2023-09-18T12:33:36;9.90;;;1.40;;
9783;SDS011;4931;44.874;-1.092;2023-09-18T12:36:03;9.23;;;1.15;;
9783;SDS011;4931;44.874;-1.092;2023-09-18T12:38:30;9.23;;;1.30;;
9783;SDS011;4931;44.874;-1.092;2023-09-18T12:40:56;8.35;;;1.38;;
9783;SDS011;4931;44.874;-1.092;2023-09-18T12:43:29;7.82;;;1.55;;
9783;SDS011;4931;44.874;-1.092;2023-09-18T12:45:56;13.82;;;2.70;;
9783;SDS011;4931;44.874;-1.092;2023-09-18T12:48:22;9.38;;;1.88;;
9783;SDS011;4931;44.874;-1.092;2023-09-18T12:50:54;8.02;;;1.65;;
9783;SDS011;4931;44.874;-1.092;2023-09-18T12:53:21;13.13;;;1.92;;
9783;SDS011;4931;44.874;-1.092;2023-09-18T12:55:48;11.00;;;1.60;;
9783;SDS011;4931;44.874;-1.092;2023-09-18T12:58:18;9.15;;;1.80;;
9783;SDS011;4931;44.874;-1.092;2023-09-18T13:00:45;11.10;;;1.40;;
9783;SDS011;4931;44.874;-1.092;2023-09-18T13:03:12;10.85;;;1.80;;
9783;SDS011;4931;44.874;-1.092;2023-09-18T13:05:38;16.52;;;2.00;;
9783;SDS011;4931;44.874;-1.092;2023-09-18T13:08:04;9.80;;;1.92;;
9783;SDS011;4931;44.874;-1.092;2023-09-18T13:13:28;21.13;;;2.53;;
9783;SDS011;4931;44.874;-1.092;2023-09-18T13:15:57;12.20;;;1.83;;
9783;SDS011;4931;44.874;-1.092;2023-09-18T13:18:24;11.15;;;1.80;;
9783;SDS011;4931;44.874;-1.092;2023-09-18T13:20:50;8.75;;;1.40;;
9783;SDS011;4931;44.874;-1.092;2023-09-18T13:23:17;12.98;;;1.70;;
9783;SDS011;4931;44.874;-1.092;2023-09-18T13:25:43;12.70;;;1.67;;
9783;SDS011;4931;44.874;-1.092;2023-09-18T13:28:10;11.75;;;1.60;;
9783;SDS011;4931;44.874;-1.092;2023-09-18T13:30:36;9.63;;;1.50;;
9783;SDS011;4931;44.874;-1.092;2023-09-18T13:33:05;15.27;;;1.95;;
9783;SDS011;4931;44.874;-1.092;2023-09-18T13:35:33;15.05;;;2.25;;
9783;SDS011;4931;44.874;-1.092;2023-09-18T13:38:00;13.98;;;2.42;;
9783;SDS011;4931;44.874;-1.092;2023-09-18T13:40:26;23.08;;;2.72;;
9783;SDS011;4931;44.874;-1.092;2023-09-18T13:42:53;20.40;;;3.33;;
9783;SDS011;4931;44.874;-1.092;2023-09-18T13:45:18;26.65;;;3.28;;
9783;SDS011;4931;44.874;-1.092;2023-09-18T13:47:44;20.40;;;3.25;;
9783;SDS011;4931;44.874;-1.092;2023-09-18T13:50:09;25.42;;;3.53;;
9783;SDS011;4931;44.874;-1.092;2023-09-18T13:52:36;24.35;;;3.70;;
9783;SDS011;4931;44.874;-1.092;2023-09-18T13:55:05;21.92;;;3.35;;
9783;SDS011;4931;44.874;-1.092;2023-09-18T13:57:31;25.77;;;3.83;;
9783;SDS011;4931;44.874;-1.092;2023-09-18T13:59:59;11.95;;;2.20;;
9783;SDS011;4931;44.874;-1.092;2023-09-18T14:02:25;13.80;;;2.13;;
9783;SDS011;4931;44.874;-1.092;2023-09-18T14:04:52;8.90;;;1.50;;
9783;SDS011;4931;44.874;-1.092;2023-09-18T14:07:19;12.15;;;1.42;;
9783;SDS011;4931;44.874;-1.092;2023-09-18T14:09:45;9.23;;;1.60;;
9783;SDS011;4931;44.874;-1.092;2023-09-18T14:12:11;8.60;;;1.35;;
9783;SDS011;4931;44.874;-1.092;2023-09-18T14:14:37;10.48;;;1.30;;
9783;SDS011;4931;44.874;-1.092;2023-09-18T14:17:03;7.80;;;1.30;;
9783;SDS011;4931;44.874;-1.092;2023-09-18T14:19:29;5.32;;;0.98;;
9783;SDS011;4931;44.874;-1.092;2023-09-18T14:21:55;5.00;;;1.13;;
9783;SDS011;4931;44.874;-1.092;2023-09-18T14:24:20;5.15;;;1.10;;
9783;SDS011;4931;44.874;-1.092;2023-09-18T14:26:50;8.23;;;1.05;;
9783;SDS011;4931;44.874;-1.092;2023-09-18T14:29:16;5.95;;;1.27;;
9783;SDS011;4931;44.874;-1.092;2023-09-18T14:31:41;8.52;;;1.08;;
9783;SDS011;4931;44.874;-1.092;2023-09-18T14:34:07;8.70;;;1.33;;
9783;SDS011;4931;44.874;-1.092;2023-09-18T14:36:36;9.93;;;1.30;;
9783;SDS011;4931;44.874;-1.092;2023-09-18T14:39:04;8.02;;;1.30;;
9783;SDS011;4931;44.874;-1.092;2023-09-18T14:41:30;5.35;;;1.23;;
9783;SDS011;4931;44.874;-1.092;2023-09-18T14:43:57;4.72;;;1.15;;
9783;SDS011;4931;44.874;-1.092;2023-09-18T14:46:24;7.20;;;0.95;;
9783;SDS011;4931;44.874;-1.092;2023-09-18T14:48:49;7.53;;;1.13;;
9783;SDS011;4931;44.874;-1.092;2023-09-18T14:51:15;7.53;;;0.88;;
9783;SDS011;4931;44.874;-1.092;2023-09-18T14:53:41;10.95;;;1.65;;
9783;SDS011;4931;44.874;-1.092;2023-09-18T14:56:07;6.35;;;1.42;;
9783;SDS011;4931;44.874;-1.092;2023-09-18T14:58:32;5.03;;;0.90;;
9783;SDS011;4931;44.874;-1.092;2023-09-18T15:00:58;3.70;;;0.90;;
9783;SDS011;4931;44.874;-1.092;2023-09-18T15:03:24;5.22;;;1.20;;
9783;SDS011;4931;44.874;-1.092;2023-09-18T15:05:51;9.85;;;1.42;;
9783;SDS011;4931;44.874;-1.092;2023-09-18T15:08:19;9.82;;;1.60;;
9783;SDS011;4931;44.874;-1.092;2023-09-18T15:10:47;8.85;;;1.40;;
9783;SDS011;4931;44.874;-1.092;2023-09-18T15:13:13;12.45;;;2.20;;
9783;SDS011;4931;44.874;-1.092;2023-09-18T15:15:43;6.95;;;1.73;;
9783;SDS011;4931;44.874;-1.092;2023-09-18T15:18:09;12.32;;;2.35;;